地図

経路データ

SID SEASON NUMBER BASIN SUBBASIN NAME ISO_TIME NATURE LAT LON WMO_WIND WMO_PRES WMO_AGENCY TRACK_TYPE DIST2LAND LANDFALL IFLAG USA_AGENCY USA_ATCF_ID USA_LAT USA_LON USA_RECORD USA_STATUS USA_WIND USA_PRES USA_SSHS USA_R34_NE USA_R34_SE USA_R34_SW USA_R34_NW USA_R50_NE USA_R50_SE USA_R50_SW USA_R50_NW USA_R64_NE USA_R64_SE USA_R64_SW USA_R64_NW USA_POCI USA_ROCI USA_RMW USA_EYE TOKYO_LAT TOKYO_LON TOKYO_GRADE TOKYO_WIND TOKYO_PRES TOKYO_R50_DIR TOKYO_R50_LONG TOKYO_R50_SHORT TOKYO_R30_DIR TOKYO_R30_LONG TOKYO_R30_SHORT TOKYO_LAND CMA_LAT CMA_LON CMA_CAT CMA_WIND CMA_PRES HKO_LAT HKO_LON HKO_CAT HKO_WIND HKO_PRES NEWDELHI_LAT NEWDELHI_LON NEWDELHI_GRADE NEWDELHI_WIND NEWDELHI_PRES NEWDELHI_CI NEWDELHI_DP NEWDELHI_POCI REUNION_LAT REUNION_LON REUNION_TYPE REUNION_WIND REUNION_PRES REUNION_TNUM REUNION_CI REUNION_RMW REUNION_R34_NE REUNION_R34_SE REUNION_R34_SW REUNION_R34_NW REUNION_R50_NE REUNION_R50_SE REUNION_R50_SW REUNION_R50_NW REUNION_R64_NE REUNION_R64_SE REUNION_R64_SW REUNION_R64_NW BOM_LAT BOM_LON BOM_TYPE BOM_WIND BOM_PRES BOM_TNUM BOM_CI BOM_RMW BOM_R34_NE BOM_R34_SE BOM_R34_SW BOM_R34_NW BOM_R50_NE BOM_R50_SE BOM_R50_SW BOM_R50_NW BOM_R64_NE BOM_R64_SE BOM_R64_SW BOM_R64_NW BOM_ROCI BOM_POCI BOM_EYE BOM_POS_METHOD BOM_PRES_METHOD NADI_LAT NADI_LON NADI_CAT NADI_WIND NADI_PRES WELLINGTON_LAT WELLINGTON_LON WELLINGTON_WIND WELLINGTON_PRES DS824_LAT DS824_LON DS824_STAGE DS824_WIND DS824_PRES TD9636_LAT TD9636_LON TD9636_STAGE TD9636_WIND TD9636_PRES TD9635_LAT TD9635_LON TD9635_WIND TD9635_PRES TD9635_ROCI NEUMANN_LAT NEUMANN_LON NEUMANN_CLASS NEUMANN_WIND NEUMANN_PRES MLC_LAT MLC_LON MLC_CLASS MLC_WIND MLC_PRES USA_GUST BOM_GUST BOM_GUST_PER REUNION_GUST REUNION_GUST_PER USA_SEAHGT USA_SEARAD_NE USA_SEARAD_SE USA_SEARAD_SW USA_SEARAD_NW STORM_SPEED STORM_DIR
1996095S09133 1996 30 SI WA OLIVIA 1996-04-03 12:00:00 TS -9.00000 133.000 main 214 199 O___________O_ jtwc_sh SH251996 -9.00000 133.000 20 -1 -9.00000 133.000 TC 20 9 326
1996095S09133 1996 30 SI WA OLIVIA 1996-04-03 13:00:00 TS -8.87333 132.908 20 1004 bom main 199 175 P_____O_____P_ SH251996 -8.96667 132.885 20 -1 -8.50000 133.000 20 20 1004 1.00000 -8.96667 132.885 TC 20 45 45 7 301
1996095S09133 1996 30 SI WA OLIVIA 1996-04-03 15:00:00 TS -8.81511 132.683 main 175 141 P_____P_____P_ SH251996 -8.89997 132.643 20 -1 -8.56052 132.806 20 21 1003 -8.89997 132.643 TC 20 8 280
1996095S09133 1996 30 SI WA OLIVIA 1996-04-03 18:00:00 TS -8.76220 132.253 main 141 117 O_____P_____O_ jtwc_sh SH251996 -8.80000 132.200 20 -1 -8.66141 132.396 20 24 1002 -8.80000 132.200 TC 20 9 277
1996095S09133 1996 30 SI WA OLIVIA 1996-04-03 19:00:00 TS -8.74477 132.080 25 1002 bom main 117 89 P_____O_____P_ SH251996 -8.76716 132.020 20 -1 -8.70000 132.200 20 25 1002 1.50000 -8.76716 132.020 TC 20 45 45 12 272
1996095S09133 1996 30 SI WA OLIVIA 1996-04-03 21:00:00 TS -8.73739 131.650 main 89 78 P_____P_____P_ SH251996 -8.71257 131.622 20 -1 -8.78704 131.707 20 25 1002 -8.71257 131.622 TC 20 13 268
1996095S09133 1996 30 SI WA OLIVIA 1996-04-04 00:00:00 TS -8.78063 130.972 main 90 90 O_____P_____O_ jtwc_sh SH251996 -8.70000 131.000 20 -1 -8.94188 130.917 20 25 1002 -8.70000 131.000 TC 20 13 265
1996095S09133 1996 30 SI WA OLIVIA 1996-04-04 01:00:00 TS -8.81631 130.776 25 1002 bom main 95 99 P_____O_____P_ SH251996 -8.72446 130.814 20 -1 -9.00000 130.700 20 25 1002 1.50000 -8.72446 130.814 TC 20 45 45 11 255
1996095S09133 1996 30 SI WA OLIVIA 1996-04-04 03:00:00 TS -8.91662 130.443 main 126 126 P_____P_____P_ SH251996 -8.81235 130.450 20 -1 -9.12516 130.429 20 25 1001 -8.81235 130.450 TC 20 10 249
1996095S09133 1996 30 SI WA OLIVIA 1996-04-04 06:00:00 TS -9.11020 129.992 main 172 172 O_____P_____O_ jtwc_sh SH251996 -9.00000 129.900 20 -1 -9.33059 130.176 20 25 1000 -9.00000 129.900 TC 20 10 248
1996095S09133 1996 30 SI WA OLIVIA 1996-04-04 07:00:00 TS -9.16525 129.828 25 1000 bom main 196 196 P_____O_____P_ SH251996 -9.04788 129.693 20 -1 -9.40000 130.100 20 25 1000 2.00000 -9.04788 129.693 TC 20 45 45 11 252
1996095S09133 1996 30 SI WA OLIVIA 1996-04-04 09:00:00 TS -9.27756 129.475 main 228 223 P_____P_____P_ SH251996 -9.15510 129.270 22 -1 -9.52249 129.884 20 25 1000 -9.15510 129.270 TC 22 11 247
1996095S09133 1996 30 SI WA OLIVIA 1996-04-04 12:00:00 TS -9.50731 128.994 main 223 214 O_____P_____O_ jtwc_sh SH251996 -9.40000 128.700 25 -1 -9.72193 129.583 20 25 1000 -9.40000 128.700 TC 25 10 240
1996095S09133 1996 30 SI WA OLIVIA 1996-04-04 13:00:00 TS -9.62125 128.859 25 1000 bom main 221 212 P_____O_____P_ SH251996 -9.53188 128.539 25 -1 -9.80000 129.500 20 25 1000 2.00000 -9.53188 128.539 TC 25 45 45 10 223
1996095S09133 1996 30 SI WA OLIVIA 1996-04-04 15:00:00 TS -9.88966 128.637 main 219 219 P_____P_____P_ SH251996 -9.84241 128.268 25 -1 -9.98415 129.376 20 25 1000 -9.84241 128.268 TC 25 10 213
1996095S09133 1996 30 SI WA OLIVIA 1996-04-04 18:00:00 TS -10.2982 128.414 main 229 222 O_____P_____O_ jtwc_sh SH251996 -10.3000 128.000 25 -1 -10.2947 129.242 20 25 1000 -10.3000 128.000 TC 25 9 207
1996095S09133 1996 30 SI WA OLIVIA 1996-04-04 19:00:00 TS -10.4058 128.366 25 1000 bom main 222 220 P_____O_____P_ SH251996 -10.4087 127.949 25 -1 -10.4000 129.200 20 25 1000 2.00000 -10.4087 127.949 TC 25 45 45 6 201
1996095S09133 1996 30 SI WA OLIVIA 1996-04-04 21:00:00 TS -10.5826 128.309 main 220 211 P_____P_____P_ SH251996 -10.5874 127.905 27 -1 -10.5728 129.116 20 26 998 -10.5874 127.905 TC 27 5 195
1996095S09133 1996 30 SI WA OLIVIA 1996-04-05 00:00:00 TS -10.8238 128.256 main 211 211 O_____P_____O_ jtwc_sh SH251996 -10.8000 127.900 30 -1 -10.8714 128.967 20 29 996 -10.8000 127.900 TC 30 5 193
1996095S09133 1996 30 SI WA OLIVIA 1996-04-05 01:00:00 TS -10.9114 128.224 30 996 bom main 218 212 P_____O_____P_ SH251996 -10.8671 127.886 31 -1 -11.0000 128.900 20 30 996 2.50000 5 -10.8671 127.886 TC 31 45 45 6 200
1996095S09133 1996 30 SI WA OLIVIA 1996-04-05 03:00:00 TS -11.1167 128.148 main 222 219 P_____P_____P_ SH251996 -10.9925 127.857 35 0 -11.3652 128.729 20 30 996 -10.9925 127.857 TC 35 7 202
1996095S09133 1996 30 SI WA OLIVIA 1996-04-05 06:00:00 TS -11.4478 128.005 main 229 228 O_____P_____O_ jtwc_sh SH251996 -11.2000 127.800 40 0 -11.9435 128.414 20 30 996 -11.2000 127.800 TC 40 7 203
1996095S09133 1996 30 SI WA OLIVIA 1996-04-05 07:00:00 TS -11.5625 127.957 30 996 bom main 229 239 P_____O_____P_ SH251996 -11.2938 127.785 40 0 -12.1000 128.300 20 30 996 2.50000 5 -11.2938 127.785 TC 40 45 45 7 204
1996095S09133 1996 30 SI WA OLIVIA 1996-04-05 09:00:00 TS -11.7664 127.857 main 239 211 P_____P_____P_ SH251996 -11.4999 127.745 42 0 -12.2995 128.080 20 30 996 -11.4999 127.745 TC 42 7 214
1996095S09133 1996 30 SI WA OLIVIA 1996-04-05 12:00:00 TS -12.0210 127.642 main 208 195 O_____P_____O_ jtwc_sh SH251996 -11.8000 127.600 45 0 -12.4631 127.725 20 30 996 -11.8000 127.600 TC 45 7 224
1996095S09133 1996 30 SI WA OLIVIA 1996-04-05 13:00:00 TS -12.0854 127.547 30 996 bom main 195 180 P_____O_____P_ SH251996 -11.8781 127.520 45 0 -12.5000 127.600 20 30 996 2.50000 5 -11.8781 127.520 TC 45 45 45 7 239
1996095S09133 1996 30 SI WA OLIVIA 1996-04-05 15:00:00 TS -12.2059 127.322 main 180 156 P_____P_____P_ SH251996 -12.0150 127.310 45 0 -12.5878 127.347 20 30 996 -12.0150 127.310 TC 45 8 246
1996095S09133 1996 30 SI WA OLIVIA 1996-04-05 18:00:00 TS -12.3592 126.914 main 156 156 O_____P_____O_ jtwc_sh SH251996 -12.2000 126.900 45 0 -12.6776 126.942 20 30 996 -12.2000 126.900 TC 45 9 249
1996095S09133 1996 30 SI WA OLIVIA 1996-04-05 19:00:00 TS -12.4111 126.767 30 996 bom main 157 149 P_____O_____P_ SH251996 -12.2667 126.750 45 0 -12.7000 126.800 20 30 996 2.50000 5 -12.2667 126.750 TC 45 45 45 10 251
1996095S09133 1996 30 SI WA OLIVIA 1996-04-05 21:00:00 TS -12.5111 126.453 main 151 145 P_____P_____P_ SH251996 -12.4000 126.422 45 0 -12.7333 126.515 20 33 994 -12.4000 126.422 TC 45 10 253
1996095S09133 1996 30 SI WA OLIVIA 1996-04-06 00:00:00 TS -12.6592 125.953 main 145 145 O_____P_____O_ jtwc_sh SH251996 -12.6000 125.900 45 0 -12.7776 126.060 20 38 991 -12.6000 125.900 TC 45 10 253
1996095S09133 1996 30 SI WA OLIVIA 1996-04-06 01:00:00 TS -12.7128 125.791 40 990 bom main 149 141 P_____O_____P_ SH251996 -12.6692 125.736 45 0 -12.8000 125.900 30 40 990 3.00000 19 133 5 -12.6692 125.736 TC 45 55 55 10 250
1996095S09133 1996 30 SI WA OLIVIA 1996-04-06 03:00:00 TS -12.8293 125.461 main 149 144 P_____P_____P_ SH251996 -12.8074 125.407 45 0 -12.8733 125.568 30 40 990 19 133 -12.8074 125.407 TC 45 10 251
1996095S09133 1996 30 SI WA OLIVIA 1996-04-06 04:00:00 TS -12.8830 125.294 40 990 bom main 150 150 P_____O_____P_ SH251996 -12.8744 125.241 45 0 -12.9000 125.400 30 40 990 3.00000 19 133 5 -12.8744 125.241 TC 45 55 55 10 255
1996095S09133 1996 30 SI WA OLIVIA 1996-04-06 06:00:00 TS -12.9658 124.956 main 159 159 O_____P_____O_ jtwc_sh SH251996 -13.0000 124.900 45 0 -12.8975 125.067 30 46 986 16 150 -13.0000 124.900 TC 45 10 256
1996095S09133 1996 30 SI WA OLIVIA 1996-04-06 07:00:00 TS -13.0055 124.780 50 985 bom main 169 169 P_____O_____P_ SH251996 -13.0583 124.720 45 0 -12.9000 124.900 30 50 985 3.50000 15 160 5 -13.0583 124.720 TC 45 69 69 11 256
1996095S09133 1996 30 SI WA OLIVIA 1996-04-06 09:00:00 TS -13.0971 124.422 main 186 186 P_____P_____P_ SH251996 -13.1650 124.350 45 0 -12.9612 124.567 30 50 985 15 160 -13.1650 124.350 TC 45 11 255
1996095S09133 1996 30 SI WA OLIVIA 1996-04-06 10:00:00 TS -13.1422 124.243 50 985 bom main 199 190 P_____O_____P_ SH251996 -13.2133 124.164 45 0 -13.0000 124.400 30 50 985 3.50000 15 160 5 -13.2133 124.164 TC 45 69 69 11 256
1996095S09133 1996 30 SI WA OLIVIA 1996-04-06 12:00:00 TS -13.2222 123.892 main 210 210 O_____P_____O_ jtwc_sh SH251996 -13.3000 123.800 45 0 -13.0666 124.075 30 50 985 15 160 -13.3000 123.800 TC 45 10 257
1996095S09133 1996 30 SI WA OLIVIA 1996-04-06 13:00:00 TS -13.2593 123.718 50 985 bom main 217 217 P_____O_____P_ SH251996 -13.3390 123.628 45 0 -13.1000 123.900 30 50 985 3.50000 15 160 5 -13.3390 123.628 TC 45 69 69 11 259
1996095S09133 1996 30 SI WA OLIVIA 1996-04-06 15:00:00 TS -13.3271 123.361 main 242 242 P_____P_____P_ SH251996 -13.4074 123.292 47 0 -13.1667 123.498 30 50 985 15 160 -13.4074 123.292 TC 47 11 259
1996095S09133 1996 30 SI WA OLIVIA 1996-04-06 16:00:00 TS -13.3591 123.185 50 985 bom main 254 254 P_____O_____P_ SH251996 -13.4386 123.128 48 0 -13.2000 123.300 30 50 985 3.50000 15 160 5 -13.4386 123.128 TC 48 69 69 10 259
1996095S09133 1996 30 SI WA OLIVIA 1996-04-06 18:00:00 TS -13.4222 122.854 main 282 282 O_____P_____O_ jtwc_sh SH251996 -13.5000 122.800 50 0 -13.2666 122.961 30 50 985 15 160 -13.5000 122.800 TC 50 10 258
1996095S09133 1996 30 SI WA OLIVIA 1996-04-06 19:00:00 TS -13.4590 122.691 50 985 bom main 295 295 P_____O_____P_ SH251996 -13.5385 122.636 50 0 -13.3000 122.800 30 50 985 3.50000 15 160 5 -13.5385 122.636 TC 50 69 69 10 257
1996095S09133 1996 30 SI WA OLIVIA 1996-04-06 21:00:00 TS -13.5321 122.361 main 318 318 P_____P_____P_ SH251996 -13.6149 122.308 52 0 -13.3666 122.467 30 50 985 15 160 -13.6149 122.308 TC 52 10 257
1996095S09133 1996 30 SI WA OLIVIA 1996-04-06 22:00:00 TS -13.5660 122.194 50 985 bom main 325 325 P_____O_____P_ SH251996 -13.6490 122.141 53 0 -13.4000 122.300 30 50 985 3.50000 15 160 5 -13.6490 122.141 TC 53 69 69 10 260
1996095S09133 1996 30 SI WA OLIVIA 1996-04-07 00:00:00 TS -13.6222 121.858 main 341 341 O_____P_____O_ jtwc_sh SH251996 -13.7000 121.800 55 0 -13.4666 121.975 30 50 985 15 160 -13.7000 121.800 TC 55 10 262
1996095S09133 1996 30 SI WA OLIVIA 1996-04-07 01:00:00 TS -13.6409 121.678 50 985 bom main 349 343 P_____O_____P_ SH251996 -13.7114 121.617 55 0 -13.5000 121.800 30 50 985 3.50000 15 160 5 -13.7114 121.617 TC 55 69 69 11 265
1996095S09133 1996 30 SI WA OLIVIA 1996-04-07 03:00:00 TS -13.6656 121.297 main 357 357 P_____P_____P_ SH251996 -13.7150 121.242 55 0 -13.5667 121.405 30 53 981 15 177 -13.7150 121.242 TC 55 11 267
1996095S09133 1996 30 SI WA OLIVIA 1996-04-07 04:00:00 TS -13.6739 121.104 55 980 bom main 368 368 P_____O_____P_ SH251996 -13.7109 121.056 55 0 -13.6000 121.200 30 55 980 4.00000 15 187 5 -13.7109 121.056 TC 55 75 75 11 267
1996095S09133 1996 30 SI WA OLIVIA 1996-04-07 06:00:00 TS -13.6915 120.728 main 381 380 O_____P_____O_ jtwc_sh SH251996 -13.7000 120.700 55 0 -13.6746 120.784 30 55 980 17 204 -13.7000 120.700 TC 55 11 267
1996095S09133 1996 30 SI WA OLIVIA 1996-04-07 07:00:00 TS -13.6999 120.557 55 980 bom main 380 380 P_____O_____P_ SH251996 -13.6999 120.536 55 0 -13.7000 120.600 30 55 980 4.00000 19 214 5 -13.6999 120.536 TC 55 75 75 9 269
1996095S09133 1996 30 SI WA OLIVIA 1996-04-07 09:00:00 TS -13.7017 120.259 main 381 381 P_____P_____P_ SH251996 -13.6999 120.228 57 0 -13.7054 120.322 30 58 976 19 214 -13.6999 120.228 TC 57 8 270
1996095S09133 1996 30 SI WA OLIVIA 1996-04-07 10:00:00 TS -13.6999 120.121 60 975 bom main 383 383 P_____O_____P_ SH251996 -13.6999 120.081 58 0 -13.7000 120.200 30 60 975 4.00000 19 214 5 -13.6999 120.081 TC 58 84 84 8 270
1996095S09133 1996 30 SI WA OLIVIA 1996-04-07 12:00:00 TS -13.7000 119.844 main 388 388 O_____P_____O_ jtwc_sh SH251996 -13.7000 119.800 60 0 -13.7000 119.933 30 60 975 16 214 -13.7000 119.800 TC 60 8 270
1996095S09133 1996 30 SI WA OLIVIA 1996-04-07 13:00:00 TS -13.7000 119.704 60 975 bom main 390 390 P_____O_____P_ SH251996 -13.7000 119.656 60 0 -13.7000 119.800 30 60 975 4.00000 15 214 5 -13.7000 119.656 TC 60 84 84 8 270
1996095S09133 1996 30 SI WA OLIVIA 1996-04-07 15:00:00 TS -13.7000 119.429 main 399 399 P_____P_____P_ SH251996 -13.7000 119.378 62 0 -13.7000 119.533 30 60 975 15 214 -13.7000 119.378 TC 62 8 270
1996095S09133 1996 30 SI WA OLIVIA 1996-04-07 16:00:00 TS -13.7000 119.297 60 975 bom main 402 402 P_____O_____P_ SH251996 -13.7000 119.245 63 0 -13.7000 119.400 30 60 975 4.00000 15 214 5 -13.7000 119.245 TC 63 84 84 7 270
1996095S09133 1996 30 SI WA OLIVIA 1996-04-07 18:00:00 TS -13.7000 119.044 main 413 413 O_____P_____O_ jtwc_sh SH251996 -13.7000 119.000 65 1 -13.7000 119.133 30 63 971 15 231 -13.7000 119.000 TC 65 7 270
1996095S09133 1996 30 SI WA OLIVIA 1996-04-07 19:00:00 TS -13.6982 118.924 65 970 bom main 416 416 P_____O_____P_ SH251996 -13.6973 118.886 65 1 -13.7000 119.000 40 65 970 4.50000 15 241 5 -13.6973 118.886 TC 65 89 89 7 271
1996095S09133 1996 30 SI WA OLIVIA 1996-04-07 21:00:00 TS -13.6949 118.696 main 424 424 P_____P_____P_ SH251996 -13.6924 118.677 67 1 -13.7000 118.733 40 65 970 15 241 -13.6924 118.677 TC 67 7 271
1996095S09133 1996 30 SI WA OLIVIA 1996-04-07 22:00:00 TS -13.6947 118.587 65 970 bom main 428 428 P_____O_____P_ SH251996 -13.6920 118.581 68 1 -13.7000 118.600 40 65 970 4.50000 15 241 5 -13.6920 118.581 TC 68 89 89 6 270
1996095S09133 1996 30 SI WA OLIVIA 1996-04-08 00:00:00 TS -13.6974 118.373 main 438 438 O_____P_____O_ jtwc_sh SH251996 -13.7000 118.400 70 1 -13.6921 118.318 40 68 966 15 258 -13.7000 118.400 TC 70 6 268
1996095S09133 1996 30 SI WA OLIVIA 1996-04-08 01:00:00 TS -13.7055 118.272 70 965 bom main 443 443 P_____O_____P_ SH251996 -13.7083 118.308 70 1 -13.7000 118.200 40 70 965 4.50000 15 268 5 -13.7083 118.308 TC 70 99 99 5 260
1996095S09133 1996 30 SI WA OLIVIA 1996-04-08 03:00:00 TS -13.7437 118.109 main 453 453 P_____P_____P_ SH251996 -13.7350 118.135 72 1 -13.7612 118.056 40 70 965 15 285 -13.7350 118.135 TC 72 5 255
1996095S09133 1996 30 SI WA OLIVIA 1996-04-08 04:00:00 TS -13.7689 118.036 70 965 bom main 468 468 P_____O_____P_ SH251996 -13.7533 118.053 73 1 -13.8000 118.000 40 70 965 4.50000 15 295 5 -13.7533 118.053 TC 73 99 99 5 250
1996095S09133 1996 30 SI WA OLIVIA 1996-04-08 06:00:00 TS -13.8222 117.889 main 474 474 O_____P_____O_ jtwc_sh SH251996 -13.8000 117.900 75 1 -13.8667 117.867 40 70 965 15 295 -13.8000 117.900 TC 75 4 250
1996095S09133 1996 30 SI WA OLIVIA 1996-04-08 07:00:00 TS -13.8447 117.818 70 965 bom main 480 480 P_____O_____P_ SH251996 -13.8171 117.828 75 1 -13.9000 117.800 40 70 965 4.50000 15 295 5 -13.8171 117.828 TC 75 99 99 4 250
1996095S09133 1996 30 SI WA OLIVIA 1996-04-08 09:00:00 TS -13.8946 117.684 main 494 494 P_____P_____P_ SH251996 -13.8625 117.692 75 1 -13.9588 117.667 40 73 961 15 295 -13.8625 117.692 TC 75 4 246
1996095S09133 1996 30 SI WA OLIVIA 1996-04-08 10:00:00 TS -13.9308 117.619 75 960 bom main 497 497 P_____O_____P_ SH251996 -13.8963 117.628 75 1 -14.0000 117.600 40 75 960 4.50000 15 295 5 -13.8963 117.628 TC 75 104 104 5 232
1996095S09133 1996 30 SI WA OLIVIA 1996-04-08 12:00:00 TS -14.0426 117.489 main 512 512 O_____P_____O_ jtwc_sh SH251996 -14.0000 117.500 75 1 -14.1279 117.467 40 75 960 15 295 -14.0000 117.500 TC 75 5 225
1996095S09133 1996 30 SI WA OLIVIA 1996-04-08 13:00:00 TS -14.1199 117.422 75 960 bom main 526 526 P_____O_____P_ SH251996 -14.0798 117.433 75 1 -14.2000 117.400 40 75 960 4.50000 15 295 5 -14.0798 117.433 TC 75 104 104 6 218
1996095S09133 1996 30 SI WA OLIVIA 1996-04-08 15:00:00 TS -14.2961 117.286 main 551 551 P_____P_____P_ SH251996 -14.2775 117.300 75 1 -14.3333 117.259 40 75 960 15 295 -14.2775 117.300 TC 75 7 216
1996095S09133 1996 30 SI WA OLIVIA 1996-04-08 16:00:00 TS -14.3908 117.222 75 960 bom main 565 565 P_____O_____P_ SH251996 -14.3862 117.233 75 1 -14.4000 117.200 40 75 960 4.50000 15 295 5 -14.3862 117.233 TC 75 104 104 7 211
1996095S09133 1996 30 SI WA OLIVIA 1996-04-08 18:00:00 TS -14.5778 117.112 main 590 590 O_____P_____O_ jtwc_sh SH251996 -14.6000 117.100 75 1 -14.5333 117.136 40 78 956 11 295 -14.6000 117.100 TC 75 6 210
1996095S09133 1996 30 SI WA OLIVIA 1996-04-08 19:00:00 TS -14.6576 117.057 80 955 bom main 600 604 P_____O_____P_ SH251996 -14.6864 117.036 75 1 -14.6000 117.100 40 80 955 5.00000 10 295 5 5 -14.6864 117.036 TC 75 110 110 6 217
1996095S09133 1996 30 SI WA OLIVIA 1996-04-08 21:00:00 TS -14.8085 116.929 main 619 619 P_____P_____P_ SH251996 -14.8500 116.907 77 1 -14.7254 116.972 40 83 951 10 295 -14.8500 116.907 TC 77 6 220
1996095S09133 1996 30 SI WA OLIVIA 1996-04-08 22:00:00 TS -14.8872 116.861 85 950 bom main 626 619 P_____O_____P_ SH251996 -14.9308 116.841 78 1 -14.8000 116.900 40 85 950 5.00000 10 295 5 5 -14.9308 116.841 TC 78 119 119 6 217
1996095S09133 1996 30 SI WA OLIVIA 1996-04-09 00:00:00 TS -15.0622 116.727 main 611 603 O_____P_____O_ jtwc_sh SH251996 -15.1000 116.700 80 1 -14.9866 116.782 40 88 946 10 295 -15.1000 116.700 TC 80 7 216
1996095S09133 1996 30 SI WA OLIVIA 1996-04-09 01:00:00 TS -15.1594 116.650 90 945 bom main 603 582 P_____O_____P_ SH251996 -15.1890 116.625 80 1 -15.1000 116.700 40 90 945 5.00000 10 295 5 -15.1890 116.625 TC 80 124 124 8 220
1996095S09133 1996 30 SI WA OLIVIA 1996-04-09 03:00:00 TS -15.3694 116.458 main 582 571 P_____P_____P_ SH251996 -15.3775 116.465 82 1 -15.3533 116.444 40 93 941 10 295 -15.3775 116.465 TC 82 9 221
1996095S09133 1996 30 SI WA OLIVIA 1996-04-09 04:00:00 TS -15.4858 116.353 95 940 bom main 571 550 P_____O_____P_ SH251996 -15.4787 116.380 83 2 -15.5000 116.300 40 95 940 5.00000 10 295 5 5 -15.4787 116.380 TC 83 135 135 10 219
1996095S09133 1996 30 SI WA OLIVIA 1996-04-09 06:00:00 TS -15.7453 116.142 main 551 529 O_____P_____O_ jtwc_sh SH251996 -15.7000 116.200 85 2 -15.8358 116.025 40 95 936 13 295 -15.7000 116.200 TC 85 10 218
1996095S09133 1996 30 SI WA OLIVIA 1996-04-09 07:00:00 TS -15.8778 116.039 95 935 bom main 531 510 P_____O_____P_ SH251996 -15.8166 116.108 87 2 -16.0000 115.900 40 95 935 5.50000 15 295 5 5 -15.8166 116.108 TC 87 135 135 10 216
1996095S09133 1996 30 SI WA OLIVIA 1996-04-09 09:00:00 TS -16.1347 115.844 main 512 492 P_____P_____P_ SH251996 -16.0700 115.915 92 2 -16.2642 115.702 40 98 931 15 277 -16.0700 115.915 TC 92 10 216
1996095S09133 1996 30 SI WA OLIVIA 1996-04-09 10:00:00 TS -16.2711 115.742 100 930 bom main 492 465 P_____O_____P_ SH251996 -16.2066 115.813 95 2 -16.4000 115.600 40 100 930 6.00000 15 268 5 5 -16.2066 115.813 TC 95 139 139 11 216
1996095S09133 1996 30 SI WA OLIVIA 1996-04-09 12:00:00 TS -16.5786 115.508 main 465 457 O_____P_____O_ jtwc_sh SH251996 -16.5000 115.600 100 3 -16.7358 115.323 40 103 926 15 268 -16.5000 115.600 TC 100 12 217
1996095S09133 1996 30 SI WA OLIVIA 1996-04-09 13:00:00 TS -16.7351 115.382 105 925 bom main 457 432 P_____O_____P_ SH251996 -16.6527 115.473 102 3 -16.9000 115.200 40 105 925 6.00000 15 268 5 5 -16.6527 115.473 TC 102 145 145 11 216
1996095S09133 1996 30 SI WA OLIVIA 1996-04-09 15:00:00 TS -17.0425 115.160 main 432 415 P_____P_____P_ SH251996 -16.9776 115.213 107 3 -17.1721 115.056 40 105 925 15 268 -16.9776 115.213 TC 107 11 213
1996095S09133 1996 30 SI WA OLIVIA 1996-04-09 16:00:00 TS -17.1987 115.061 105 925 bom main 415 395 P_____O_____P_ SH251996 -17.1480 115.092 110 3 -17.3000 115.000 40 105 925 6.00000 15 268 5 5 -17.1480 115.092 TC 110 145 145 11 209
1996095S09133 1996 30 SI WA OLIVIA 1996-04-09 18:00:00 TS -17.5222 114.884 main 395 380 O_____P_____O_ jtwc_sh SH251996 -17.5000 114.900 115 4 -17.5667 114.851 40 105 925 15 268 -17.5000 114.900 TC 115 11 205
1996095S09133 1996 30 SI WA OLIVIA 1996-04-09 19:00:00 TS -17.6850 114.826 105 925 bom main 380 352 P_____O_____P_ SH251996 -17.6775 114.838 116 4 -17.7000 114.800 40 105 925 6.00000 15 268 7 5 -17.6775 114.838 TC 116 145 145 10 191
1996095S09133 1996 30 SI WA OLIVIA 1996-04-09 21:00:00 TS -18.0119 114.780 main 352 334 P_____P_____P_ SH251996 -18.0424 114.775 120 4 -17.9509 114.789 40 105 925 15 268 -18.0424 114.775 TC 120 10 185
1996095S09133 1996 30 SI WA OLIVIA 1996-04-09 22:00:00 TS -18.1852 114.779 105 925 bom main 334 305 P_____O_____P_ SH251996 -18.2278 114.769 121 4 -18.1000 114.800 40 105 925 6.00000 15 268 7 5 -18.2278 114.769 TC 121 145 145 11 0
1996095S09133 1996 30 SI WA OLIVIA 1996-04-10 00:00:00 TS -18.5630 114.795 main 296 276 O_____P_____O_ jtwc_sh SH251996 -18.6000 114.800 125 4 -18.4891 114.784 40 105 925 15 250 -18.6000 114.800 TC 125 11 179
1996095S09133 1996 30 SI WA OLIVIA 1996-04-10 01:00:00 TS -18.7503 114.808 105 925 bom main 276 242 P_____O_____P_ SH251996 -18.7754 114.812 125 4 -18.7000 114.800 40 105 925 6.00000 15 241 7 5 -18.7754 114.812 TC 125 145 145 11 171
1996095S09133 1996 30 SI WA OLIVIA 1996-04-10 03:00:00 TS -19.1209 114.891 main 242 218 P_____P_____P_ SH251996 -19.1273 114.875 125 4 -19.1079 114.922 40 105 925 15 241 -19.1273 114.875 TC 125 12 166
1996095S09133 1996 30 SI WA OLIVIA 1996-04-10 04:00:00 TS -19.3063 114.954 105 925 bom main 218 185 P_____O_____P_ SH251996 -19.3095 114.931 125 4 -19.3000 115.000 40 105 925 6.00000 15 241 11 5 -19.3095 114.931 TC 125 145 145 12 160
1996095S09133 1996 30 SI WA OLIVIA 1996-04-10 06:00:00 TS -19.6743 115.109 main 176 152 O_____P_____O_ jtwc_sh SH251996 -19.7000 115.100 125 4 -19.6229 115.126 40 105 925 15 241 -19.7000 115.100 TC 125 12 157
1996095S09133 1996 30 SI WA OLIVIA 1996-04-10 07:00:00 TS -19.8722 115.207 105 925 bom main 152 103 P_____O_____P_ SH251996 -19.9084 115.211 125 4 -19.8000 115.200 40 105 925 6.00000 15 241 17 5 -19.9084 115.211 TC 124 145 145 14 153
1996095S09133 1996 30 SI WA OLIVIA 1996-04-10 09:00:00 TS -20.3167 115.453 main 98 64 P_____P_____P_ SH251996 -20.3551 115.490 125 4 -20.2400 115.379 40 105 925 15 241 -20.3551 115.490 TC 122 16 152
1996095S09133 1996 30 SI WA OLIVIA 1996-04-10 10:00:00 TS -20.5622 115.601 105 925 bom main 64 0 P_____O_____P_ SH251996 -20.5934 115.652 125 4 -20.5000 115.500 40 105 925 6.00000 15 241 13 3 -20.5934 115.652 TC 121 220 220 18 150
1996095S09133 1996 30 SI WA OLIVIA 1996-04-10 12:00:00 TS -21.0964 115.938 main 0 0 O_____P_____O_ jtwc_sh SH251996 -21.1000 116.000 125 4 -21.0891 115.815 40 105 928 15 241 -21.1000 116.000 TC 120 19 149
1996095S09133 1996 30 SI WA OLIVIA 1996-04-10 13:00:00 TS -21.3775 116.115 105 930 bom main 0 0 P_____O_____P_ SH251996 -21.3662 116.172 120 4 -21.4000 116.000 40 105 930 6.00000 15 241 13 -21.3662 116.172 TC 116 145 145 20 149
1996095S09133 1996 30 SI WA OLIVIA 1996-04-10 15:00:00 TS -21.9490 116.486 main 0 0 P_____P_____P_ SH251996 -21.9275 116.535 112 3 -21.9920 116.387 40 95 939 15 241 -21.9275 116.535 TC 110 20 149
1996095S09133 1996 30 SI WA OLIVIA 1996-04-10 16:00:00 TS -22.2447 116.682 90 945 bom main 0 0 P_____O_____P_ SH251996 -22.2170 116.723 108 3 -22.3000 116.600 40 90 945 15 241 -22.2170 116.723 TC 106 124 124 21 148
1996095S09133 1996 30 SI WA OLIVIA 1996-04-10 18:00:00 TS -22.8564 117.087 main 0 0 O_____P_____O_ jtwc_sh SH251996 -22.8000 117.100 100 3 -22.9691 117.061 40 73 961 17 223 -22.8000 117.100 TC 100 21 149
1996095S09133 1996 30 SI WA OLIVIA 1996-04-10 19:00:00 TS -23.1537 117.284 65 970 bom main 0 0 P_____O_____P_ SH251996 -23.0805 117.276 95 2 -23.3000 117.300 40 65 970 19 214 -23.0805 117.276 TC 95 89 89 21 148
1996095S09133 1996 30 SI WA OLIVIA 1996-04-10 21:00:00 TS -23.7298 117.672 main 0 0 P_____P_____P_ SH251996 -23.6421 117.629 87 2 -23.9053 117.759 40 61 973 19 196 -23.6421 117.629 TC 87 20 148
1996095S09133 1996 30 SI WA OLIVIA 1996-04-10 22:00:00 TS -24.0167 117.874 60 975 bom main 0 0 P_____O_____P_ SH251996 -23.9250 117.811 83 2 -24.2000 118.000 30 60 975 19 187 -23.9250 117.811 TC 83 84 84 21 146
1996095S09133 1996 30 SI WA OLIVIA 1996-04-11 00:00:00 TS -24.5999 118.304 main 0 0 O_____P_____O_ jtwc_sh SH251996 -24.5000 118.200 75 1 -24.7998 118.512 30 56 978 22 169 -24.5000 118.200 TC 75 21 146
1996095S09133 1996 30 SI WA OLIVIA 1996-04-11 01:00:00 TS -24.8922 118.521 55 980 bom main 0 0 P_____O_____P_ SH251996 -24.7883 118.381 69 1 -25.1000 118.800 30 55 980 24 160 -24.7883 118.381 TC 69 75 75 22 144
1996095S09133 1996 30 SI WA OLIVIA 1996-04-11 03:00:00 TS -25.4836 119.000 main 0 0 P_____P_____P_ SH251996 -25.3755 118.776 60 0 -25.6999 119.448 30 55 980 24 160 -25.3755 118.776 TC 60 23 143
1996095S09133 1996 30 SI WA OLIVIA 1996-04-11 04:00:00 TS -25.7845 119.273 55 980 bom main 0 0 P_____O_____P_ SH251996 -25.6768 119.010 54 0 -26.0000 119.800 30 55 980 24 160 -25.6768 119.010 TC 54 75 75 25 138
1996095S09133 1996 30 SI WA OLIVIA 1996-04-11 06:00:00 TS -26.3999 119.907 main 0 0 O_____P_____O_ jtwc_sh SH251996 -26.3000 119.600 45 0 -26.5998 120.520 30 48 983 24 142 -26.3000 119.600 TC 45 26 136
1996095S09133 1996 30 SI WA OLIVIA 1996-04-11 07:00:00 TS -26.7305 120.283 45 985 bom main 0 0 P_____O_____P_ SH251996 -26.6458 119.975 41 0 -26.9000 120.900 30 45 985 24 133 -26.6458 119.975 TC 41 64 64 30 132
1996095S09133 1996 30 SI WA OLIVIA 1996-04-11 09:00:00 TS -27.3991 121.140 main 0 0 P_____P_____P_ SH251996 -27.3527 120.863 35 0 -27.4919 121.695 30 41 988 133 -27.3527 120.863 TC 35 31 130
1996095S09133 1996 30 SI WA OLIVIA 1996-04-11 10:00:00 TS -27.7291 121.605 40 990 bom main 0 0 P_____O_____P_ SH251996 -27.6936 121.357 31 -1 -27.8000 122.100 30 40 990 133 -27.6936 121.357 TC 31 55 55 32 127
1996095S09133 1996 30 SI WA OLIVIA 1996-04-11 12:00:00 TS -28.3535 122.554 main 0 0 O_____P_____O_ jtwc_sh SH251996 -28.3000 122.400 25 -1 -28.4605 122.861 30 40 990 133 -28.3000 122.400 TC 25 31 126
1996095S09133 1996 30 SI WA OLIVIA 1996-04-11 13:00:00 TS -28.6218 123.021 40 990 bom main 0 0 P_____O_____P_ SH251996 -28.5327 122.882 24 -1 -28.8000 123.300 30 40 990 133 -28.5327 122.882 TC 24 55 55 30 119
1996095S09133 1996 30 SI WA OLIVIA 1996-04-11 15:00:00 TS -29.1002 124.059 main 0 0 P_____P_____P_ SH251996 -28.9130 123.886 22 -1 -29.4746 124.406 30 40 990 115 -28.9130 123.886 TC 22 31 117
1996095S09133 1996 30 SI WA OLIVIA 1996-04-11 16:00:00 TS -29.3186 124.615 40 990 bom main 0 0 P_____O_____P_ SH251996 -29.0779 124.422 21 -1 -29.8000 125.000 30 40 990 106 -29.0779 124.422 TC 21 55 55 32 113
1996095S09133 1996 30 SI WA OLIVIA 1996-04-11 18:00:00 TS -29.7323 125.776 main 0 0 O_____P_____O_ jtwc_sh SH251996 -29.4000 125.600 20 -1 -30.3969 126.127 30 36 993 106 -29.4000 125.600 TC 20 34 112
1996095S09133 1996 30 SI WA OLIVIA 1996-04-11 19:00:00 TS -29.9480 126.403 35 995 bom main 0 0 P_____O_____P_ SH251996 -29.5720 126.255 19 -1 -30.7000 126.700 30 35 995 106 -29.5720 126.255 TC 19 49 49 38 114
1996095S09133 1996 30 SI WA OLIVIA 1996-04-11 21:00:00 TS -30.5039 127.770 main 0 0 P_____P_____P_ SH251996 -29.9379 127.682 17 -1 -31.3531 127.903 30 35 995 106 -29.9379 127.682 TC 17 41 118
1996095S09133 1996 30 SI WA OLIVIA 1996-04-11 22:00:00 TS -30.9131 128.469 35 995 bom main 0 0 P_____O_____P_ SH251996 -30.1261 128.439 16 -1 -31.7000 128.500 30 35 995 106 -30.1261 128.439 TC 16 49 49 43 127
1996095S09133 1996 30 SI WA OLIVIA 1996-04-12 00:00:00 TS -31.7901 129.760 main 22 22 O_____P_____O_ jtwc_sh SH251996 -30.5000 130.000 15 -1 -32.4352 129.639 30 31 995 106 -30.5000 130.000 TC 15 48 142
1996095S09133 1996 30 SI WA OLIVIA 1996-04-12 01:00:00 NR -32.8000 130.200 30 995 bom main 133 144 ______O_______ SH251996 -1 -32.8000 130.200 80 30 995 106 TC 45 45 43 142
1996095S09133 1996 30 SI WA OLIVIA 1996-04-12 03:00:00 NR -33.4778 131.330 main 187 183 ______P_______ SH251996 -1 -33.4778 131.330 80 30 995 106 TC 35 125
1996095S09133 1996 30 SI WA OLIVIA 1996-04-12 04:00:00 NR -33.8000 131.900 30 995 bom main 202 ______O_______ SH251996 -1 -33.8000 131.900 80 30 995 106 TC 45 45 34 124

IBTrACS Databaseについて

本データベースは、米国NOAAが公開する1842年以降の世界の熱帯低気圧のベストトラックデータアーカイブInternational Best Track Archive for Climate Stewardship (IBTrACS)を、ウェブで閲覧しやすい形式に変換したものです。

最終更新日:2021-12-03